createdAt,value
2018-01-28T00:00:53.799Z,76.90
2018-01-28T00:03:20.008Z,77.30
2018-01-28T00:05:46.923Z,77.10
2018-01-28T00:08:13.107Z,77.00
2018-01-28T00:10:39.336Z,76.90
2018-01-28T00:13:05.535Z,77.20
2018-01-28T00:15:31.715Z,77.10
2018-01-28T00:17:57.941Z,77.40
2018-01-28T00:20:24.136Z,78.20
2018-01-28T00:22:50.341Z,78.10
2018-01-28T00:25:16.544Z,78.80
2018-01-28T00:27:42.723Z,79.20
2018-01-28T00:30:08.894Z,79.60
2018-01-28T00:32:35.900Z,80.10
2018-01-28T00:35:02.277Z,80.10
2018-01-28T00:37:29.177Z,81.10
2018-01-28T00:39:55.396Z,80.30
2018-01-28T00:42:21.557Z,80.60
2018-01-28T00:44:47.736Z,80.60
2018-01-28T00:47:14.676Z,80.90
2018-01-28T00:49:40.835Z,80.90
2018-01-28T00:52:07.009Z,81.20
2018-01-28T00:54:33.200Z,80.80
2018-01-28T00:56:59.347Z,81.40
2018-01-28T00:59:25.495Z,80.90
2018-01-28T01:01:51.672Z,81.10
2018-01-28T01:04:17.821Z,81.00
2018-01-28T01:06:44.732Z,81.30
2018-01-28T01:09:10.934Z,81.20
2018-01-28T01:11:37.115Z,81.30
2018-01-28T01:14:04.767Z,81.60
2018-01-28T01:16:30.975Z,81.70
2018-01-28T01:18:57.132Z,81.60
2018-01-28T01:21:23.302Z,81.70
2018-01-28T01:23:50.223Z,81.80
2018-01-28T01:26:16.395Z,81.80
2018-01-28T01:28:42.576Z,82.00
2018-01-28T01:31:08.774Z,81.90
2018-01-28T01:33:35.012Z,81.90
2018-01-28T01:36:01.312Z,81.80
2018-01-28T01:38:28.245Z,82.60
2018-01-28T01:40:54.440Z,82.20
2018-01-28T01:43:20.611Z,82.30
2018-01-28T01:45:46.815Z,81.80
2018-01-28T01:48:12.980Z,81.70
2018-01-28T01:50:39.147Z,81.60
2018-01-28T01:53:06.062Z,81.70
2018-01-28T01:55:32.979Z,82.60
2018-01-28T01:57:59.140Z,81.90
2018-01-28T02:00:25.318Z,81.90
2018-01-28T02:02:51.491Z,81.90
2018-01-28T02:05:17.683Z,81.90
2018-01-28T02:07:43.883Z,82.10
2018-01-28T02:10:10.032Z,82.40
2018-01-28T02:12:36.201Z,82.60
2018-01-28T02:15:02.401Z,82.50
2018-01-28T02:17:29.301Z,82.60
2018-01-28T02:19:55.462Z,82.60
2018-01-28T02:22:21.682Z,82.40
2018-01-28T02:24:47.847Z,82.40
2018-01-28T02:27:14.055Z,82.30
2018-01-28T02:29:40.208Z,82.40
2018-01-28T02:32:06.375Z,82.70
2018-01-28T02:34:32.620Z,82.80
2018-01-28T02:36:59.009Z,83.30
2018-01-28T02:39:25.932Z,83.20
2018-01-28T02:41:52.152Z,83.10
2018-01-28T02:44:18.384Z,83.20
2018-01-28T02:46:44.532Z,83.30
2018-01-28T02:49:10.685Z,83.60
2018-01-28T02:51:36.920Z,83.70
2018-01-28T02:54:03.095Z,83.60
2018-01-28T02:56:29.995Z,83.70
2018-01-28T02:58:56.175Z,83.70
2018-01-28T03:01:22.376Z,83.90
2018-01-28T03:03:49.278Z,83.80
2018-01-28T03:06:15.443Z,83.80
2018-01-28T03:08:41.609Z,83.80
2018-01-28T03:11:07.779Z,83.90
2018-01-28T03:13:33.947Z,83.90
2018-01-28T03:16:00.100Z,84.00
2018-01-28T03:18:26.300Z,84.00
2018-01-28T03:20:52.470Z,84.00
2018-01-28T03:23:19.391Z,84.20
2018-01-28T03:25:45.607Z,83.70
2018-01-28T03:28:11.784Z,83.80
2018-01-28T03:30:38.725Z,84.30
2018-01-28T03:33:04.915Z,84.50
2018-01-28T03:35:31.195Z,84.10
2018-01-28T03:37:58.123Z,84.10
2018-01-28T03:40:24.302Z,84.10
2018-01-28T03:42:51.276Z,84.20
2018-01-28T03:45:17.453Z,84.20
2018-01-28T03:47:43.635Z,84.00
2018-01-28T03:50:10.628Z,83.90
2018-01-28T03:52:36.767Z,84.00
2018-01-28T03:55:03.744Z,83.90
2018-01-28T03:57:29.928Z,83.70
2018-01-28T03:59:56.105Z,83.60
2018-01-28T04:02:23.754Z,83.70
2018-01-28T04:04:51.599Z,83.70
2018-01-28T04:07:17.779Z,83.70
2018-01-28T04:09:43.955Z,83.60
2018-01-28T04:12:10.123Z,83.50
2018-01-28T04:14:36.267Z,83.40
2018-01-28T04:19:40.276Z,83.30
2018-01-28T04:22:06.445Z,83.00
2018-01-28T04:24:33.363Z,83.40
2018-01-28T04:26:59.546Z,83.30
2018-01-28T04:29:25.715Z,83.50
2018-01-28T04:31:51.875Z,83.40
2018-01-28T04:34:18.038Z,83.30
2018-01-28T04:36:46.755Z,83.30
2018-01-28T04:39:15.804Z,83.30
2018-01-28T04:41:41.947Z,83.50
2018-01-28T04:44:08.112Z,83.50
2018-01-28T04:46:34.268Z,83.60
2018-01-28T04:49:00.440Z,83.60
2018-01-28T04:51:26.596Z,83.70
2018-01-28T04:53:53.505Z,83.40
2018-01-28T04:56:19.679Z,83.30
2018-01-28T04:58:46.581Z,83.10
2018-01-28T05:01:12.752Z,83.10
2018-01-28T05:03:40.414Z,83.40
2018-01-28T05:06:06.583Z,83.30
2018-01-28T05:08:32.771Z,83.20
2018-01-28T05:10:58.959Z,83.00
2018-01-28T05:13:25.125Z,83.10
2018-01-28T05:15:51.295Z,83.20
2018-01-28T05:18:18.208Z,83.30
2018-01-28T05:20:44.357Z,83.20
2018-01-28T05:23:10.524Z,83.30
2018-01-28T05:25:36.724Z,83.20
2018-01-28T05:28:02.883Z,83.10
2018-01-28T05:30:29.781Z,83.10
2018-01-28T05:32:55.952Z,83.00
2018-01-28T05:35:22.100Z,82.60
2018-01-28T05:37:49.076Z,82.90
2018-01-28T05:40:16.192Z,83.00
2018-01-28T05:42:43.101Z,83.20
2018-01-28T05:45:09.247Z,83.00
2018-01-28T05:47:35.411Z,83.00
2018-01-28T05:50:02.347Z,82.50
2018-01-28T05:52:29.292Z,82.00
2018-01-28T05:54:55.602Z,82.00
2018-01-28T05:57:21.768Z,81.90
2018-01-28T05:59:47.955Z,82.20
2018-01-28T06:02:14.124Z,82.00
2018-01-28T06:04:40.302Z,82.00
2018-01-28T06:07:06.498Z,82.00
2018-01-28T06:09:32.692Z,82.00
2018-01-28T06:11:58.856Z,82.00
2018-01-28T06:14:25.035Z,82.00
2018-01-28T06:16:51.208Z,82.00
2018-01-28T06:19:17.595Z,82.20
2018-01-28T06:21:43.779Z,82.20
2018-01-28T06:24:09.950Z,82.10
2018-01-28T06:26:36.104Z,82.10
2018-01-28T06:29:02.284Z,81.90
2018-01-28T06:31:28.454Z,81.60
2018-01-28T06:33:55.364Z,81.80
2018-01-28T06:36:21.511Z,81.80
2018-01-28T06:38:47.755Z,81.50
2018-01-28T06:41:14.686Z,81.40
2018-01-28T06:43:40.859Z,82.00
2018-01-28T06:46:07.772Z,81.50
2018-01-28T06:48:33.960Z,81.40
2018-01-28T06:51:00.125Z,81.20
2018-01-28T06:53:26.365Z,81.10
2018-01-28T06:55:52.544Z,80.90
2018-01-28T06:58:19.451Z,80.50
2018-01-28T07:00:45.652Z,80.50
2018-01-28T07:03:11.860Z,81.20
2018-01-28T07:05:38.048Z,80.90
2018-01-28T07:08:04.268Z,81.00
2018-01-28T07:10:30.469Z,81.00
2018-01-28T07:12:56.728Z,80.10
2018-01-28T07:17:48.208Z,80.10
2018-01-28T07:20:14.424Z,80.10
2018-01-28T07:22:40.608Z,80.30
2018-01-28T07:25:07.584Z,79.70
2018-01-28T07:27:33.755Z,79.70
2018-01-28T07:29:59.940Z,80.00
2018-01-28T07:32:26.119Z,80.30
2018-01-28T07:34:53.072Z,80.60
2018-01-28T07:37:19.255Z,80.60
2018-01-28T07:39:45.510Z,80.10
2018-01-28T07:42:12.610Z,79.70
2018-01-28T07:44:39.552Z,79.40
2018-01-28T07:47:05.775Z,79.40
2018-01-28T07:49:32.740Z,79.30
2018-01-28T07:51:59.685Z,79.50
2018-01-28T07:54:25.884Z,79.40
2018-01-28T07:56:52.078Z,78.80
2018-01-28T07:59:18.275Z,79.10
2018-01-28T08:01:44.486Z,79.40
2018-01-28T08:04:10.676Z,79.60
2018-01-28T08:06:36.892Z,80.60
2018-01-28T08:09:03.075Z,80.60
2018-01-28T08:11:34.139Z,80.50
2018-01-28T08:14:00.345Z,80.20
2018-01-28T08:16:26.573Z,80.60
2018-01-28T08:18:52.770Z,80.40
2018-01-28T08:21:18.949Z,81.50
2018-01-28T08:23:46.026Z,80.70
2018-01-28T08:26:12.235Z,80.60
2018-01-28T08:28:50.400Z,81.10
2018-01-28T08:31:17.376Z,80.20
2018-01-28T08:33:44.330Z,79.30
2018-01-28T08:36:11.275Z,79.90
2018-01-28T08:38:38.206Z,79.50
2018-01-28T08:41:05.427Z,78.80
2018-01-28T08:43:31.819Z,79.30
2018-01-28T08:45:57.974Z,79.20
2018-01-28T08:48:24.187Z,80.10
2018-01-28T08:50:51.136Z,79.10
2018-01-28T08:53:18.060Z,79.30
2018-01-28T08:55:44.256Z,79.20
2018-01-28T08:58:10.491Z,79.50
2018-01-28T09:00:36.707Z,79.40
2018-01-28T09:03:02.887Z,79.00
2018-01-28T09:05:29.082Z,79.30
2018-01-28T09:07:55.292Z,79.40
2018-01-28T09:10:22.220Z,79.60
2018-01-28T09:12:48.471Z,79.50
2018-01-28T09:15:15.415Z,79.30
2018-01-28T09:17:43.076Z,79.60
2018-01-28T09:20:09.272Z,79.60
2018-01-28T09:22:35.440Z,78.90
2018-01-28T09:25:01.619Z,78.40
2018-01-28T09:27:27.816Z,78.60
2018-01-28T09:29:54.072Z,79.30
2018-01-28T09:32:20.285Z,78.70
2018-01-28T09:34:47.952Z,78.50
2018-01-28T09:37:14.117Z,78.50
2018-01-28T09:39:40.312Z,77.80
2018-01-28T09:42:06.624Z,77.20
2018-01-28T09:44:32.998Z,77.20
2018-01-28T09:46:59.937Z,78.30
2018-01-28T09:49:26.115Z,78.00
2018-01-28T09:51:53.043Z,77.80
2018-01-28T09:54:19.984Z,77.20
2018-01-28T09:56:46.204Z,77.20
2018-01-28T09:59:12.381Z,77.60
2018-01-28T10:01:38.575Z,76.90
2018-01-28T10:04:04.760Z,77.40
2018-01-28T10:06:30.968Z,76.70
2018-01-28T10:08:57.880Z,76.70
2018-01-28T10:11:24.071Z,76.60
2018-01-28T10:13:50.252Z,75.70
2018-01-28T10:16:16.433Z,75.20
2018-01-28T10:18:42.645Z,76.00
2018-01-28T10:21:08.840Z,75.00
2018-01-28T10:23:35.064Z,75.30
2018-01-28T10:26:01.274Z,74.80
2018-01-28T10:28:27.445Z,75.10
2018-01-28T10:30:53.643Z,75.40
2018-01-28T10:33:19.889Z,74.40
2018-01-28T10:35:46.069Z,74.60
2018-01-28T10:38:12.300Z,74.30
2018-01-28T10:40:38.493Z,73.80
2018-01-28T10:43:04.924Z,73.30
2018-01-28T10:45:32.021Z,73.40
2018-01-28T10:47:58.216Z,74.30
2018-01-28T10:50:24.496Z,72.40
2018-01-28T10:52:51.662Z,74.50
2018-01-28T10:55:18.470Z,73.10
2018-01-28T10:57:44.756Z,72.70
2018-01-28T11:00:12.112Z,72.60
2018-01-28T11:02:38.684Z,72.60
2018-01-28T11:05:06.416Z,71.10
2018-01-28T11:07:32.847Z,71.00
2018-01-28T11:10:00.224Z,71.50
2018-01-28T11:12:27.888Z,72.50
2018-01-28T11:14:55.546Z,72.50
2018-01-28T11:17:22.502Z,72.40
2018-01-28T11:19:50.066Z,72.60
2018-01-28T11:22:17.533Z,73.30
2018-01-28T11:24:44.655Z,73.20
2018-01-28T11:27:12.352Z,72.70
2018-01-28T11:29:39.783Z,72.70
2018-01-28T11:32:07.277Z,72.90
2018-01-28T11:34:33.551Z,71.80
2018-01-28T11:37:00.054Z,71.20
2018-01-28T11:39:26.476Z,71.10
2018-01-28T11:41:52.715Z,71.00
2018-01-28T11:44:19.872Z,71.60
2018-01-28T11:46:46.435Z,71.60
2018-01-28T11:49:13.396Z,71.80
2018-01-28T11:51:39.595Z,71.70
2018-01-28T11:54:05.821Z,71.20
2018-01-28T11:56:32.024Z,71.20
2018-01-28T11:58:58.267Z,69.50
2018-01-28T12:01:24.476Z,70.50
2018-01-28T12:03:50.651Z,70.50
2018-01-28T12:06:16.896Z,70.20
2018-01-28T12:08:43.158Z,71.00
2018-01-28T12:11:09.503Z,70.40
2018-01-28T12:13:35.778Z,71.10
2018-01-28T12:16:02.012Z,70.90
2018-01-28T12:18:28.345Z,70.20
2018-01-28T12:20:55.379Z,71.60
2018-01-28T12:23:21.665Z,71.50
2018-01-28T12:25:48.146Z,71.30
2018-01-28T12:28:14.626Z,71.40
2018-01-28T12:30:41.127Z,71.80
2018-01-28T12:33:08.385Z,70.20
2018-01-28T12:35:34.730Z,70.00
2018-01-28T12:38:01.851Z,70.10
2018-01-28T12:40:28.355Z,70.30
2018-01-28T12:42:55.390Z,71.30
2018-01-28T12:45:21.993Z,70.80
2018-01-28T12:47:49.387Z,70.60
2018-01-28T12:50:17.254Z,70.40
2018-01-28T12:52:43.759Z,70.40
2018-01-28T12:55:10.833Z,70.80
2018-01-28T12:57:37.282Z,70.70
2018-01-28T13:00:03.596Z,70.80
2018-01-28T13:02:30.674Z,70.80
2018-01-28T13:04:57.846Z,70.30
2018-01-28T13:07:25.008Z,70.60
2018-01-28T13:09:51.299Z,70.60
2018-01-28T13:12:17.653Z,71.20
2018-01-28T13:14:43.985Z,70.60
2018-01-28T13:17:10.277Z,70.20
2018-01-28T13:19:36.517Z,70.20
2018-01-28T13:22:02.758Z,70.20
2018-01-28T13:24:28.965Z,70.60
2018-01-28T13:26:55.191Z,70.70
2018-01-28T13:29:21.433Z,70.70
2018-01-28T13:31:47.606Z,70.60
2018-01-28T13:34:14.551Z,71.00
2018-01-28T13:36:40.760Z,71.00
2018-01-28T13:39:06.970Z,70.60
2018-01-28T13:41:33.141Z,70.40
2018-01-28T13:43:59.367Z,69.80
2018-01-28T13:46:25.669Z,69.40
2018-01-28T13:48:51.907Z,70.10
2018-01-28T13:51:18.144Z,70.90
2018-01-28T13:53:44.336Z,70.20
2018-01-28T13:56:11.276Z,69.60
2018-01-28T13:58:37.473Z,69.50
2018-01-28T14:01:03.670Z,70.40
2018-01-28T14:03:29.871Z,70.90
2018-01-28T14:05:56.055Z,70.40
2018-01-28T14:08:22.230Z,70.00
2018-01-28T14:10:48.422Z,71.40
2018-01-28T14:13:14.598Z,70.50
2018-01-28T14:15:40.790Z,70.90
2018-01-28T14:18:07.003Z,71.10
2018-01-28T14:20:33.212Z,72.00
2018-01-28T14:22:59.384Z,70.60
2018-01-28T14:25:25.575Z,71.20
2018-01-28T14:27:51.800Z,70.70
2018-01-28T14:30:17.999Z,71.20
2018-01-28T14:32:44.188Z,71.50
2018-01-28T14:35:11.167Z,71.20
2018-01-28T14:37:38.084Z,72.10
2018-01-28T14:40:05.040Z,71.30
2018-01-28T14:42:31.235Z,71.20
2018-01-28T14:44:57.412Z,71.50
2018-01-28T14:47:23.672Z,73.10
2018-01-28T14:49:51.414Z,73.50
2018-01-28T14:52:19.071Z,74.10
2018-01-28T14:54:45.260Z,74.10
2018-01-28T14:57:11.505Z,74.50
2018-01-28T14:59:37.685Z,73.40
2018-01-28T15:02:03.868Z,73.50
2018-01-28T15:04:30.068Z,74.30
2018-01-28T15:06:56.977Z,74.40
2018-01-28T15:09:23.168Z,74.40
2018-01-28T15:11:49.376Z,74.40
2018-01-28T15:14:26.646Z,75.80
2018-01-28T15:16:53.582Z,75.20
2018-01-28T15:19:19.803Z,75.20
2018-01-28T15:21:45.975Z,75.50
2018-01-28T15:24:12.209Z,77.00
2018-01-28T15:26:39.151Z,77.40
2018-01-28T15:29:05.319Z,77.30
2018-01-28T15:31:31.539Z,78.10
2018-01-28T15:33:58.294Z,78.20
2018-01-28T15:36:24.496Z,78.20
2018-01-28T15:38:50.699Z,79.00
2018-01-28T15:41:16.895Z,78.70
2018-01-28T15:43:43.822Z,79.20
2018-01-28T15:46:10.009Z,79.10
2018-01-28T15:48:36.412Z,79.70
2018-01-28T15:51:02.852Z,79.90
2018-01-28T15:53:29.804Z,79.70
2018-01-28T15:55:56.056Z,79.70
2018-01-28T15:58:22.331Z,80.90
2018-01-28T16:00:49.295Z,81.10
2018-01-28T16:03:15.472Z,81.10
2018-01-28T16:05:42.379Z,81.50
2018-01-28T16:08:08.593Z,81.50
2018-01-28T16:10:36.202Z,81.50
2018-01-28T16:13:06.011Z,82.00
2018-01-28T16:15:32.736Z,81.90
2018-01-28T16:17:58.917Z,82.30
2018-01-28T16:20:25.103Z,82.40
2018-01-28T16:22:52.546Z,82.50
2018-01-28T16:25:19.241Z,83.40
2018-01-28T16:27:46.155Z,82.90
2018-01-28T16:30:12.356Z,82.80
2018-01-28T16:32:38.523Z,82.90
2018-01-28T16:35:04.700Z,82.80
2018-01-28T16:37:30.916Z,83.10
2018-01-28T16:39:57.112Z,83.20
2018-01-28T16:42:23.272Z,83.30
2018-01-28T16:44:49.484Z,83.70
2018-01-28T16:47:15.903Z,83.80
2018-01-28T16:49:42.265Z,83.80
2018-01-28T16:52:08.687Z,84.20
2018-01-28T16:54:34.880Z,84.10
2018-01-28T16:57:01.098Z,84.40
2018-01-28T16:59:27.296Z,84.60
2018-01-28T17:01:53.491Z,84.50
2018-01-28T17:04:20.418Z,84.60
2018-01-28T17:06:47.400Z,84.80
2018-01-28T17:09:13.612Z,84.80
2018-01-28T17:11:40.538Z,85.20
2018-01-28T17:14:06.735Z,85.20
2018-01-28T17:16:32.955Z,85.20
2018-01-28T17:18:59.134Z,85.20
2018-01-28T17:21:25.362Z,85.30
2018-01-28T17:23:51.523Z,85.70
2018-01-28T17:26:18.480Z,86.00
2018-01-28T17:28:44.691Z,85.80
2018-01-28T17:31:10.871Z,86.00
2018-01-28T17:33:37.036Z,86.00
2018-01-28T17:36:03.254Z,86.00
2018-01-28T17:38:29.464Z,86.00
2018-01-28T17:40:56.376Z,86.20
2018-01-28T17:43:23.360Z,86.40
2018-01-28T17:45:50.266Z,86.30
2018-01-28T17:48:16.422Z,86.20
2018-01-28T17:50:42.695Z,86.40
2018-01-28T17:53:09.123Z,85.30
2018-01-28T17:55:36.046Z,86.60
2018-01-28T17:58:02.988Z,86.50
2018-01-28T18:00:32.225Z,86.50
2018-01-28T18:03:01.027Z,86.50
2018-01-28T18:05:28.669Z,86.30
2018-01-28T18:07:55.193Z,86.50
2018-01-28T18:10:22.104Z,86.60
2018-01-28T18:12:48.313Z,86.50
2018-01-28T18:15:14.509Z,86.50
2018-01-28T18:17:40.682Z,86.60
2018-01-28T18:20:06.925Z,86.70
2018-01-28T18:22:33.093Z,86.70
2018-01-28T18:25:00.129Z,86.40
2018-01-28T18:27:26.307Z,86.20
2018-01-28T18:29:53.240Z,86.80
2018-01-28T18:32:19.401Z,86.00
2018-01-28T18:34:46.332Z,86.20
2018-01-28T18:37:13.263Z,86.20
2018-01-28T18:39:39.441Z,86.20
2018-01-28T18:42:06.379Z,86.40
2018-01-28T18:44:32.576Z,86.40
2018-01-28T18:46:58.760Z,86.50
2018-01-28T18:49:24.993Z,86.70
2018-01-28T18:51:51.194Z,86.60
2018-01-28T18:54:18.143Z,86.80
2018-01-28T18:56:44.342Z,86.70
2018-01-28T18:59:10.532Z,86.90
2018-01-28T19:01:37.464Z,86.80
2018-01-28T19:04:03.639Z,86.70
2018-01-28T19:06:30.552Z,86.80
2018-01-28T19:08:57.820Z,86.80
2018-01-28T19:11:24.000Z,86.70
2018-01-28T19:13:50.179Z,86.90
2018-01-28T19:16:17.832Z,86.90
2018-01-28T19:18:44.022Z,86.90
2018-01-28T19:21:10.219Z,86.90
2018-01-28T19:23:37.875Z,87.20
2018-01-28T19:26:04.069Z,87.10
2018-01-28T19:28:30.259Z,87.10
2018-01-28T19:30:56.428Z,87.10
2018-01-28T19:33:22.646Z,87.20
2018-01-28T19:35:49.595Z,87.30
2018-01-28T19:38:15.776Z,87.30
2018-01-28T19:40:41.959Z,87.20
2018-01-28T19:43:08.875Z,87.40
2018-01-28T19:45:35.040Z,87.40
2018-01-28T19:48:01.984Z,87.60
2018-01-28T19:50:28.930Z,87.30
2018-01-28T19:52:55.919Z,87.40
2018-01-28T19:55:22.369Z,87.30
2018-01-28T19:57:48.560Z,87.30
2018-01-28T20:00:15.471Z,87.40
2018-01-28T20:02:41.674Z,87.30
2018-01-28T20:05:07.835Z,87.40
2018-01-28T20:07:33.987Z,87.40
2018-01-28T20:10:00.196Z,87.40
2018-01-28T20:12:26.372Z,87.40
2018-01-28T20:14:53.303Z,87.50
2018-01-28T20:17:19.506Z,87.40
2018-01-28T20:19:45.696Z,87.50
2018-01-28T20:22:12.610Z,87.70
2018-01-28T20:24:38.808Z,87.60
2018-01-28T20:27:04.993Z,87.70
2018-01-28T20:29:31.172Z,87.70
2018-01-28T20:31:57.388Z,88.00
2018-01-28T20:34:24.290Z,87.90
2018-01-28T20:36:50.471Z,87.90
2018-01-28T20:39:17.410Z,88.00
2018-01-28T20:41:44.339Z,88.60
2018-01-28T20:44:11.268Z,87.80
2018-01-28T20:46:37.468Z,87.80
2018-01-28T20:49:04.372Z,87.80
2018-01-28T20:51:30.564Z,87.80
2018-01-28T20:53:56.835Z,87.90
2018-01-28T20:56:23.783Z,87.80
2018-01-28T20:58:49.972Z,87.80
2018-01-28T21:01:16.146Z,87.90
2018-01-28T21:03:43.096Z,87.80
2018-01-28T21:06:09.268Z,87.90
2018-01-28T21:08:36.405Z,88.00
2018-01-28T21:11:02.572Z,87.90
2018-01-28T21:13:28.765Z,88.10
2018-01-28T21:15:54.964Z,88.00
2018-01-28T21:18:21.124Z,87.90
2018-01-28T21:20:47.292Z,87.90
2018-01-28T21:23:14.239Z,88.00
2018-01-28T21:25:41.157Z,88.00
2018-01-28T21:28:07.329Z,88.00
2018-01-28T21:30:34.260Z,88.40
2018-01-28T21:33:00.480Z,88.30
2018-01-28T21:35:26.654Z,88.20
2018-01-28T21:37:53.579Z,88.40
2018-01-28T21:40:19.745Z,88.30
2018-01-28T21:42:46.654Z,88.40
2018-01-28T21:45:13.608Z,88.40
2018-01-28T21:47:39.787Z,88.30
2018-01-28T21:50:05.965Z,88.40
2018-01-28T21:52:32.171Z,88.50
2018-01-28T21:54:58.792Z,88.40
2018-01-28T21:57:25.195Z,88.50
2018-01-28T21:59:51.400Z,88.50
2018-01-28T22:02:17.587Z,88.70
2018-01-28T22:04:44.505Z,88.60
2018-01-28T22:07:10.684Z,88.60
2018-01-28T22:09:36.996Z,88.50
2018-01-28T22:12:03.960Z,88.70
2018-01-28T22:14:30.159Z,88.70
2018-01-28T22:16:56.361Z,88.60
2018-01-28T22:19:23.271Z,88.50
2018-01-28T22:21:50.224Z,88.60
2018-01-28T22:24:17.149Z,88.50
2018-01-28T22:26:44.087Z,88.60
2018-01-28T22:29:10.328Z,88.50
2018-01-28T22:31:36.556Z,88.40
2018-01-28T22:34:02.720Z,88.60
2018-01-28T22:36:29.837Z,88.90
2018-01-28T22:38:56.025Z,88.80
2018-01-28T22:41:22.223Z,88.80
2018-01-28T22:43:48.424Z,88.70
2018-01-28T22:46:14.615Z,88.90
2018-01-28T22:48:41.543Z,88.80
2018-01-28T22:51:08.488Z,88.70
2018-01-28T22:53:34.664Z,88.70
2018-01-28T22:56:00.893Z,88.70
2018-01-28T22:58:27.441Z,88.70
2018-01-28T23:00:53.623Z,89.30
2018-01-28T23:03:19.869Z,88.80
2018-01-28T23:05:46.063Z,88.50
2018-01-28T23:08:12.252Z,89.20
2018-01-28T23:10:39.192Z,88.60
2018-01-28T23:13:05.412Z,88.60
2018-01-28T23:15:31.614Z,88.60
2018-01-28T23:17:57.787Z,88.80
2018-01-28T23:20:24.021Z,88.80
2018-01-28T23:22:50.198Z,88.70
2018-01-28T23:25:17.137Z,88.80
2018-01-28T23:27:44.100Z,88.60
2018-01-28T23:30:10.295Z,88.50
2018-01-28T23:32:37.944Z,88.40
2018-01-28T23:35:04.136Z,88.40
2018-01-28T23:37:31.056Z,88.40
2018-01-28T23:39:57.981Z,88.70
2018-01-28T23:42:24.151Z,88.50
2018-01-28T23:44:51.055Z,88.60
2018-01-28T23:47:17.224Z,88.50
2018-01-28T23:49:44.170Z,89.00
2018-01-28T23:52:10.361Z,88.50
2018-01-28T23:54:37.315Z,88.60
2018-01-28T23:57:03.572Z,88.60
2018-01-28T23:59:30.528Z,88.50
